createdAt,value
2023-01-04T00:02:24.540Z,2.90
2023-01-04T00:06:26.792Z,3.30
2023-01-04T00:10:28.663Z,3.50
2023-01-04T00:14:30.546Z,3.10
2023-01-04T00:18:33.373Z,2.90
2023-01-04T00:22:35.190Z,3.00
2023-01-04T00:26:37.176Z,2.50
2023-01-04T00:30:39.086Z,2.20
2023-01-04T00:34:40.929Z,2.40
2023-01-04T00:38:43.131Z,2.00
2023-01-04T00:42:44.941Z,2.30
2023-01-04T00:46:47.348Z,2.70
2023-01-04T00:50:50.078Z,3.10
2023-01-04T00:54:52.010Z,3.40
2023-01-04T00:58:56.041Z,3.60
2023-01-04T01:02:58.123Z,3.70
2023-01-04T01:07:00.140Z,3.70
2023-01-04T01:11:10.088Z,4.00
2023-01-04T01:15:12.352Z,4.30
2023-01-04T01:19:14.766Z,4.40
2023-01-04T01:23:16.934Z,4.50
2023-01-04T01:27:18.825Z,3.70
2023-01-04T01:31:27.229Z,3.40
2023-01-04T01:35:29.192Z,2.90
2023-01-04T01:39:30.993Z,3.30
2023-01-04T01:44:26.940Z,3.70
2023-01-04T01:48:30.095Z,3.20
2023-01-04T01:52:37.662Z,3.40
2023-01-04T01:56:43.605Z,3.20
2023-01-04T02:00:45.480Z,3.40
2023-01-04T02:04:50.573Z,4.00
2023-01-04T02:08:53.271Z,4.20
2023-01-04T02:12:55.099Z,4.20
2023-01-04T02:16:56.842Z,4.50
2023-01-04T02:21:06.592Z,4.40
2023-01-04T02:25:25.495Z,4.60
2023-01-04T02:29:48.918Z,4.80
2023-01-04T02:34:15.449Z,4.90
2023-01-04T02:38:45.214Z,4.70
2023-01-04T02:43:33.552Z,4.80
2023-01-04T02:47:55.656Z,4.60
2023-01-04T02:51:57.537Z,4.30
2023-01-04T02:56:20.111Z,4.20
2023-01-04T03:01:05.830Z,4.20
2023-01-04T03:05:58.088Z,4.50
2023-01-04T03:10:15.752Z,4.70
2023-01-04T03:14:32.700Z,4.80
2023-01-04T03:18:42.435Z,4.90
2023-01-04T03:23:11.860Z,4.80
2023-01-04T03:27:32.514Z,4.30
2023-01-04T03:31:59.038Z,4.20
2023-01-04T03:36:19.952Z,4.00
2023-01-04T03:40:48.962Z,4.00
2023-01-04T03:45:22.686Z,4.10
2023-01-04T03:49:36.337Z,3.70
2023-01-04T03:53:44.871Z,3.50
2023-01-04T03:57:48.059Z,3.60
2023-01-04T04:01:50.410Z,3.90
2023-01-04T04:06:10.793Z,4.30
2023-01-04T04:10:12.537Z,4.40
2023-01-04T04:14:14.353Z,4.00
2023-01-04T04:18:16.070Z,4.20
2023-01-04T04:22:17.922Z,4.30
2023-01-04T04:26:19.845Z,4.20
2023-01-04T04:30:21.711Z,4.00
2023-01-04T04:34:23.461Z,3.70
2023-01-04T04:38:25.333Z,3.90
2023-01-04T04:42:27.181Z,3.90
2023-01-04T04:46:29.204Z,4.20
2023-01-04T04:50:31.018Z,4.20
2023-01-04T04:54:32.882Z,4.00
2023-01-04T04:58:34.831Z,4.20
2023-01-04T05:02:36.715Z,4.50
2023-01-04T05:06:38.641Z,4.70
2023-01-04T05:10:40.385Z,4.60
2023-01-04T05:14:42.186Z,4.40
2023-01-04T05:18:43.932Z,4.30
2023-01-04T05:22:45.702Z,4.30
2023-01-04T05:26:47.514Z,4.20
2023-01-04T05:30:50.509Z,4.00
2023-01-04T05:34:52.245Z,4.00
2023-01-04T05:38:54.025Z,4.20
2023-01-04T05:42:56.030Z,4.20
2023-01-04T05:46:57.889Z,4.00
2023-01-04T05:50:59.632Z,4.20
2023-01-04T05:55:01.679Z,4.30
2023-01-04T05:59:03.449Z,4.30
2023-01-04T06:03:05.355Z,4.30
2023-01-04T06:07:07.241Z,4.30
2023-01-04T06:11:09.011Z,4.20
2023-01-04T06:15:11.759Z,4.20
2023-01-04T06:19:13.481Z,3.80
2023-01-04T06:23:15.261Z,3.80
2023-01-04T06:27:17.221Z,4.00
2023-01-04T06:31:19.060Z,3.90
2023-01-04T06:35:20.915Z,4.10
2023-01-04T06:39:22.688Z,4.00
2023-01-04T06:43:24.656Z,4.10
2023-01-04T06:47:26.741Z,4.00
2023-01-04T06:51:29.560Z,3.90
2023-01-04T06:55:31.761Z,4.10
2023-01-04T06:59:33.495Z,4.20
2023-01-04T07:03:35.328Z,4.20
2023-01-04T07:07:37.187Z,4.10
2023-01-04T07:11:38.946Z,3.90
2023-01-04T07:15:41.436Z,3.10
2023-01-04T07:19:43.342Z,3.30
2023-01-04T07:23:45.120Z,3.40
2023-01-04T07:27:54.823Z,3.60
2023-01-04T07:31:57.003Z,3.80
2023-01-04T07:36:03.177Z,3.90
2023-01-04T07:40:06.226Z,4.00
2023-01-04T07:44:09.400Z,3.90
2023-01-04T07:48:11.210Z,3.90
2023-01-04T07:52:13.000Z,4.00
2023-01-04T07:56:18.687Z,4.10
2023-01-04T08:00:20.817Z,4.40
2023-01-04T08:04:27.102Z,4.70
2023-01-04T08:08:31.713Z,4.50
2023-01-04T08:12:33.470Z,5.00
2023-01-04T08:16:38.107Z,5.00
2023-01-04T08:20:39.857Z,5.00
2023-01-04T08:24:42.124Z,5.00
2023-01-04T08:28:44.662Z,5.30
2023-01-04T08:32:46.772Z,5.00
2023-01-04T08:36:50.635Z,4.90
2023-01-04T08:40:58.923Z,4.70
2023-01-04T08:45:03.986Z,4.60
2023-01-04T08:49:05.864Z,4.70
2023-01-04T08:53:07.732Z,4.60
2023-01-04T08:57:09.592Z,5.00
2023-01-04T09:01:11.673Z,5.10
2023-01-04T09:05:22.285Z,5.40
2023-01-04T09:09:25.173Z,5.20
2023-01-04T09:13:26.999Z,5.10
2023-01-04T09:17:28.802Z,5.20
2023-01-04T09:21:30.838Z,5.20
2023-01-04T09:25:32.590Z,4.80
2023-01-04T09:29:34.471Z,5.20
2023-01-04T09:34:11.954Z,5.20
2023-01-04T09:37:58.158Z,5.50
2023-01-04T09:42:05.175Z,5.50
2023-01-04T09:46:10.214Z,5.20
2023-01-04T09:50:29.800Z,5.00
2023-01-04T09:55:39.375Z,5.20
2023-01-04T09:59:37.888Z,5.20
2023-01-04T10:03:46.634Z,5.10
2023-01-04T10:07:48.592Z,5.40
2023-01-04T10:12:05.302Z,5.40
2023-01-04T10:16:30.284Z,5.40
2023-01-04T10:25:52.703Z,4.80
2023-01-04T10:30:02.474Z,5.20
2023-01-04T10:34:30.352Z,5.40
2023-01-04T10:38:39.982Z,5.30
2023-01-04T10:42:58.970Z,5.20
2023-01-04T10:47:48.117Z,5.30
2023-01-04T10:51:55.537Z,5.30
2023-01-04T10:56:26.245Z,5.40
2023-01-04T11:00:32.743Z,5.20
2023-01-04T11:04:40.688Z,5.10
2023-01-04T11:08:54.816Z,5.30
2023-01-04T11:12:56.610Z,5.20
2023-01-04T11:17:02.022Z,5.00
2023-01-04T11:21:12.330Z,5.20
2023-01-04T11:25:36.171Z,5.20
2023-01-04T11:29:52.706Z,5.60
2023-01-04T11:33:59.934Z,5.50
2023-01-04T11:38:14.390Z,5.40
2023-01-04T11:42:21.557Z,6.10
2023-01-04T11:46:25.241Z,6.30
2023-01-04T11:50:41.977Z,6.60
2023-01-04T11:54:43.735Z,6.20
2023-01-04T11:59:04.799Z,6.40
2023-01-04T12:03:18.586Z,6.30
2023-01-04T12:07:33.777Z,5.70
2023-01-04T12:11:39.794Z,5.90
2023-01-04T12:16:19.070Z,5.70
2023-01-04T12:20:23.393Z,6.00
2023-01-04T12:24:29.242Z,6.20
2023-01-04T12:28:37.471Z,6.10
2023-01-04T12:32:40.590Z,6.10
2023-01-04T12:36:45.150Z,6.20
2023-01-04T12:40:47.034Z,6.10
2023-01-04T12:44:51.851Z,6.40
2023-01-04T12:49:05.741Z,5.90
2023-01-04T12:53:30.630Z,5.90
2023-01-04T12:57:37.311Z,6.00
2023-01-04T13:01:39.941Z,6.20
2023-01-04T13:05:56.901Z,6.20
2023-01-04T13:10:28.509Z,6.10
2023-01-04T13:14:39.271Z,6.40
2023-01-04T13:18:53.142Z,6.30
2023-01-04T13:22:58.064Z,6.50
2023-01-04T13:27:08.937Z,6.80
2023-01-04T13:31:10.867Z,6.30
2023-01-04T13:35:15.065Z,6.60
2023-01-04T13:39:17.045Z,6.50
2023-01-04T13:43:31.797Z,6.40
2023-01-04T13:47:39.771Z,6.10
2023-01-04T13:51:41.661Z,6.70
2023-01-04T13:55:43.418Z,7.10
2023-01-04T13:59:45.195Z,6.80
2023-01-04T14:03:51.952Z,6.80
2023-01-04T14:07:53.913Z,6.50
2023-01-04T14:12:07.621Z,6.50
2023-01-04T14:16:13.924Z,6.30
2023-01-04T14:20:34.726Z,6.20
2023-01-04T14:29:19.693Z,6.10
2023-01-04T14:33:23.263Z,6.20
2023-01-04T14:37:25.324Z,6.20
2023-01-04T14:41:30.202Z,6.00
2023-01-04T14:45:32.051Z,6.20
2023-01-04T14:49:33.869Z,6.10
2023-01-04T14:53:35.997Z,6.30
2023-01-04T14:57:43.139Z,6.40
2023-01-04T15:01:45.106Z,6.50
2023-01-04T15:05:47.057Z,5.90
2023-01-04T15:09:48.797Z,6.20
2023-01-04T15:13:50.678Z,6.40
2023-01-04T15:17:52.804Z,6.70
2023-01-04T15:21:54.582Z,6.30
2023-01-04T15:25:56.513Z,6.10
2023-01-04T15:29:58.294Z,6.50
2023-01-04T15:34:00.127Z,6.80
2023-01-04T15:38:04.077Z,6.80
2023-01-04T15:42:30.059Z,6.90
2023-01-04T15:46:32.142Z,7.20
2023-01-04T15:50:36.441Z,7.20
2023-01-04T15:54:38.193Z,7.10
2023-01-04T15:58:40.004Z,7.40
2023-01-04T16:02:41.930Z,7.10
2023-01-04T16:06:44.959Z,6.80
2023-01-04T16:10:46.768Z,6.90
2023-01-04T16:14:48.671Z,7.00
2023-01-04T16:18:53.231Z,7.00
2023-01-04T16:22:55.062Z,7.00
2023-01-04T16:26:56.861Z,6.60
2023-01-04T16:30:58.709Z,6.90
2023-01-04T16:35:00.514Z,6.20
2023-01-04T16:39:02.545Z,5.90
2023-01-04T16:43:04.369Z,6.40
2023-01-04T16:47:06.868Z,6.00
2023-01-04T16:51:08.745Z,6.00
2023-01-04T16:55:11.042Z,6.10
2023-01-04T16:59:15.765Z,6.50
2023-01-04T17:03:17.565Z,6.60
2023-01-04T17:07:19.291Z,6.50
2023-01-04T17:12:19.014Z,6.50
2023-01-04T17:15:45.399Z,6.20
2023-01-04T17:19:47.253Z,6.30
2023-01-04T17:23:50.889Z,6.30
2023-01-04T17:27:52.769Z,6.30
2023-01-04T17:31:54.688Z,6.60
2023-01-04T17:35:57.639Z,6.70
2023-01-04T17:39:59.499Z,6.30
2023-01-04T17:44:04.088Z,6.10
2023-01-04T17:48:07.005Z,6.30
2023-01-04T17:52:09.807Z,5.90
2023-01-04T17:56:15.174Z,6.00
2023-01-04T18:00:17.456Z,5.70
2023-01-04T18:04:19.248Z,5.90
2023-01-04T18:08:21.946Z,6.50
2023-01-04T18:12:23.758Z,6.50
2023-01-04T18:16:28.573Z,6.60
2023-01-04T18:20:31.250Z,6.70
2023-01-04T18:24:36.884Z,6.10
2023-01-04T18:28:39.967Z,6.10
2023-01-04T18:32:41.847Z,6.30
2023-01-04T18:36:43.642Z,6.50
2023-01-04T18:40:45.491Z,6.40
2023-01-04T18:44:49.780Z,6.10
2023-01-04T18:48:57.664Z,6.00
2023-01-04T18:52:59.407Z,6.10
2023-01-04T18:57:01.653Z,6.00
2023-01-04T19:01:09.164Z,5.90
2023-01-04T19:05:12.247Z,5.90
2023-01-04T19:09:14.110Z,5.90
2023-01-04T19:13:16.002Z,5.90
2023-01-04T19:17:21.454Z,6.00
2023-01-04T19:21:23.301Z,6.30
2023-01-04T19:25:28.474Z,5.90
2023-01-04T19:29:32.458Z,6.20
2023-01-04T19:33:34.955Z,6.30
2023-01-04T19:37:36.805Z,6.00
2023-01-04T19:41:38.607Z,6.30
2023-01-04T19:45:41.660Z,6.30
2023-01-04T19:49:43.649Z,6.00
2023-01-04T19:53:45.700Z,6.00
2023-01-04T19:57:47.524Z,5.70
2023-01-04T20:01:49.472Z,6.20
2023-01-04T20:05:51.482Z,6.40
2023-01-04T20:09:53.972Z,6.30
2023-01-04T20:13:55.938Z,6.00
2023-01-04T20:17:57.711Z,6.00
2023-01-04T20:21:59.504Z,6.10
2023-01-04T20:26:11.203Z,6.50
2023-01-04T20:30:13.551Z,6.30
2023-01-04T20:34:15.411Z,6.40
2023-01-04T20:38:17.226Z,6.50
2023-01-04T20:42:37.878Z,6.70
2023-01-04T20:46:41.400Z,6.80
2023-01-04T20:50:46.710Z,6.60
2023-01-04T20:54:50.268Z,6.80
2023-01-04T20:58:52.513Z,6.40
2023-01-04T21:02:54.511Z,6.70
2023-01-04T21:06:56.492Z,6.80
2023-01-04T21:10:58.790Z,6.60
2023-01-04T21:15:00.650Z,7.00
2023-01-04T21:19:02.457Z,7.00
2023-01-04T21:23:04.368Z,6.70
2023-01-04T21:27:06.152Z,7.00
2023-01-04T21:31:19.141Z,7.00
2023-01-04T21:35:20.965Z,7.30
2023-01-04T21:39:23.041Z,7.60
2023-01-04T21:43:24.892Z,7.80
2023-01-04T21:47:29.077Z,7.60
2023-01-04T21:51:31.105Z,7.70
2023-01-04T21:55:35.134Z,7.80
2023-01-04T21:59:37.248Z,7.60
2023-01-04T22:03:39.464Z,7.50
2023-01-04T22:07:41.367Z,7.50
2023-01-04T22:11:43.400Z,7.80
2023-01-04T22:15:45.279Z,6.90
2023-01-04T22:19:47.052Z,7.30
2023-01-04T22:23:48.901Z,7.70
2023-01-04T22:27:51.531Z,7.90
2023-01-04T22:31:53.357Z,7.20
2023-01-04T22:35:55.177Z,7.50
2023-01-04T22:39:56.906Z,7.50
2023-01-04T22:44:05.994Z,7.50
2023-01-04T22:48:07.770Z,7.70
2023-01-04T22:52:09.642Z,7.50
2023-01-04T22:56:19.488Z,7.60
2023-01-04T23:00:23.179Z,7.60
2023-01-04T23:04:25.100Z,7.90
2023-01-04T23:08:26.885Z,7.70
2023-01-04T23:12:30.000Z,7.70
2023-01-04T23:16:33.364Z,7.80
2023-01-04T23:20:35.405Z,7.50
2023-01-04T23:24:38.521Z,8.10
2023-01-04T23:28:40.638Z,8.30
2023-01-04T23:32:42.823Z,8.30
2023-01-04T23:36:44.762Z,8.50
2023-01-04T23:40:49.371Z,8.30
2023-01-04T23:44:51.180Z,8.40
2023-01-04T23:48:52.927Z,8.40
2023-01-04T23:52:54.679Z,8.50
2023-01-04T23:56:56.707Z,8.40
